Time;durP1;ratioP1;P1;durP2;ratioP2;P2;SDS_P1;SDS_P2;PMS_P1;PMS_P2;Temp;Humidity;BMP_temperature;BMP_pressure;BME280_temperature;BME280_humidity;BME280_pressure;Samples;Min_cycle;Max_cycle;Signal;HPM_P1;HPM_P2
2023/04/01 00:01:43;;;;;;;4.30;2.57;;;;;;;;;;5012630;28;20459;-68
2023/04/01 00:04:12;;;;;;;6.70;2.50;;;;;;;;;;5013278;28;20455;-68
2023/04/01 00:06:39;;;;;;;5.40;3.40;;;;;;;;;;5013505;28;20468;-68
2023/04/01 00:09:07;;;;;;;4.90;2.50;;;;;;;;;;5015773;28;20501;-68
2023/04/01 00:11:34;;;;;;;5.00;2.43;;;;;;;;;;5016866;28;20447;-68
2023/04/01 00:14:01;;;;;;;7.30;2.60;;;;;;;;;;5016601;28;20944;-68
2023/04/01 00:16:28;;;;;;;4.40;2.33;;;;;;;;;;5016517;28;20948;-68
2023/04/01 00:18:56;;;;;;;6.53;3.03;;;;;;;;;;5016832;28;20444;-68
2023/04/01 00:21:25;;;;;;;9.13;2.57;;;;;;;;;;5016710;28;20440;-68
2023/04/01 00:23:52;;;;;;;6.60;2.70;;;;;;;;;;5016826;28;20499;-68
2023/04/01 00:26:20;;;;;;;3.63;3.30;;;;;;;;;;5016726;28;20542;-68
2023/04/01 00:28:48;;;;;;;8.83;3.03;;;;;;;;;;5016266;28;20564;-68
2023/04/01 00:31:15;;;;;;;4.33;2.93;;;;;;;;;;5016191;28;20454;-68
2023/04/01 00:33:42;;;;;;;5.83;3.00;;;;;;;;;;5017009;28;20439;-68
2023/04/01 00:36:10;;;;;;;4.13;2.43;;;;;;;;;;5016657;28;20481;-68
2023/04/01 00:38:40;;;;;;;5.93;2.70;;;;;;;;;;5016320;28;20455;-68
2023/04/01 00:41:08;;;;;;;4.83;2.80;;;;;;;;;;5016454;28;20451;-68
2023/04/01 00:43:35;;;;;;;4.30;2.57;;;;;;;;;;5016247;28;20445;-68
2023/04/01 00:46:03;;;;;;;3.40;2.77;;;;;;;;;;5016022;28;20986;-66
2023/04/01 00:48:31;;;;;;;2.93;2.67;;;;;;;;;;5016126;28;20567;-68
2023/04/01 00:51:01;;;;;;;5.70;3.17;;;;;;;;;;5016020;28;20515;-68
2023/04/01 00:53:29;;;;;;;3.20;2.90;;;;;;;;;;5015793;28;20931;-67
2023/04/01 00:56:00;;;;;;;4.97;3.30;;;;;;;;;;5016167;28;20530;-67
2023/04/01 00:58:29;;;;;;;4.33;3.10;;;;;;;;;;5016117;28;20435;-68
2023/04/01 01:00:56;;;;;;;5.00;3.13;;;;;;;;;;5015732;28;20451;-68
2023/04/01 01:03:24;;;;;;;6.60;2.63;;;;;;;;;;4999771;28;20459;-68
2023/04/01 01:05:59;;;;;;;4.00;3.10;;;;;;;;;;4995955;28;20500;-68
2023/04/01 01:08:31;;;;;;;4.13;2.87;;;;;;;;;;4996413;28;20432;-68
2023/04/01 01:10:59;;;;;;;4.10;2.70;;;;;;;;;;5012812;28;20448;-68
2023/04/01 01:13:30;;;;;;;3.33;3.00;;;;;;;;;;5015856;28;20445;-68
2023/04/01 01:15:59;;;;;;;8.20;3.23;;;;;;;;;;5016005;28;20434;-68
2023/04/01 01:18:29;;;;;;;7.80;3.33;;;;;;;;;;5015166;28;20454;-68
2023/04/01 01:21:08;;;;;;;3.30;3.00;;;;;;;;;;5015426;28;20927;-68
2023/04/01 01:23:51;;;;;;;3.63;2.47;;;;;;;;;;5015700;28;20440;-68
2023/04/01 01:26:35;;;;;;;3.57;2.80;;;;;;;;;;5015601;28;20435;-68
2023/04/01 01:29:07;;;;;;;4.67;2.37;;;;;;;;;;5015550;28;20510;-68
2023/04/01 01:31:38;;;;;;;7.10;2.83;;;;;;;;;;5015746;28;20483;-68
2023/04/01 01:34:13;;;;;;;5.30;2.63;;;;;;;;;;5015235;28;20452;-68
2023/04/01 01:36:44;;;;;;;4.67;2.90;;;;;;;;;;5015901;28;20429;-68
2023/04/01 01:39:14;;;;;;;4.80;3.37;;;;;;;;;;5015357;28;20436;-68
2023/04/01 01:41:43;;;;;;;4.57;2.80;;;;;;;;;;5015325;28;20934;-68
2023/04/01 01:44:10;;;;;;;3.30;3.00;;;;;;;;;;5014880;28;20458;-68
2023/04/01 01:46:40;;;;;;;3.43;3.13;;;;;;;;;;5014891;28;20440;-68
2023/04/01 01:49:09;;;;;;;6.55;3.22;;;;;;;;;;5015122;28;20953;-68
2023/04/01 01:51:36;;;;;;;5.10;3.07;;;;;;;;;;5015312;28;20201;-68
2023/04/01 01:54:04;;;;;;;3.63;3.10;;;;;;;;;;5015007;28;20472;-68
2023/04/01 01:56:32;;;;;;;3.80;3.10;;;;;;;;;;5015049;28;20445;-68
2023/04/01 01:59:01;;;;;;;4.97;3.37;;;;;;;;;;5014578;28;20463;-68
2023/04/01 02:01:30;;;;;;;5.13;3.20;;;;;;;;;;5014785;28;20451;-70
2023/04/01 02:03:57;;;;;;;3.20;2.90;;;;;;;;;;4995199;28;20446;-68
2023/04/01 02:06:26;;;;;;;4.23;3.17;;;;;;;;;;4995515;28;20459;-68
2023/04/01 02:08:55;;;;;;;4.73;3.37;;;;;;;;;;4998233;28;20482;-68
2023/04/01 02:11:26;;;;;;;5.50;3.90;;;;;;;;;;4995136;28;20437;-68
2023/04/01 02:13:56;;;;;;;5.70;3.80;;;;;;;;;;4995244;28;20426;-68
2023/04/01 02:16:25;;;;;;;3.20;3.00;;;;;;;;;;4994768;28;20451;-68
2023/04/01 02:18:54;;;;;;;3.53;3.23;;;;;;;;;;4994821;28;20450;-68
2023/04/01 02:21:23;;;;;;;4.70;3.23;;;;;;;;;;4994909;28;20441;-68
2023/04/01 02:23:50;;;;;;;3.50;3.20;;;;;;;;;;4994798;28;20447;-68
2023/04/01 02:26:18;;;;;;;3.80;3.50;;;;;;;;;;4994485;28;20448;-68
2023/04/01 02:28:48;;;;;;;2.73;2.53;;;;;;;;;;4994300;28;20449;-69
2023/04/01 02:31:16;;;;;;;5.73;3.40;;;;;;;;;;4993615;28;21036;-68
2023/04/01 02:33:43;;;;;;;3.53;3.23;;;;;;;;;;4994569;28;20457;-68
2023/04/01 02:36:12;;;;;;;4.50;3.20;;;;;;;;;;4994280;28;20492;-68
2023/04/01 02:38:40;;;;;;;5.20;3.00;;;;;;;;;;4994623;28;20460;-70
2023/04/01 02:41:07;;;;;;;6.30;3.30;;;;;;;;;;4994344;28;20539;-67
2023/04/01 02:43:34;;;;;;;5.90;4.10;;;;;;;;;;4994551;28;20442;-67
2023/04/01 02:46:03;;;;;;;5.20;2.80;;;;;;;;;;4994597;28;20448;-67
2023/04/01 02:48:30;;;;;;;3.47;3.17;;;;;;;;;;4994432;28;20455;-67
2023/04/01 02:50:57;;;;;;;3.50;3.20;;;;;;;;;;4994126;28;20550;-67
2023/04/01 02:53:25;;;;;;;3.60;3.30;;;;;;;;;;4994010;28;20934;-67
2023/04/01 02:55:52;;;;;;;3.07;2.77;;;;;;;;;;4994956;28;20780;-68
2023/04/01 02:58:19;;;;;;;3.30;3.00;;;;;;;;;;4994051;28;20923;-68
2023/04/01 03:00:46;;;;;;;5.00;2.97;;;;;;;;;;4995082;28;20818;-68
2023/04/01 03:03:15;;;;;;;3.00;2.80;;;;;;;;;;4997390;28;20946;-68
2023/04/01 03:05:42;;;;;;;2.30;2.20;;;;;;;;;;4993852;28;20958;-68
2023/04/01 03:08:10;;;;;;;6.40;2.93;;;;;;;;;;4993970;28;20817;-68
2023/04/01 03:10:37;;;;;;;3.03;2.80;;;;;;;;;;4995724;28;20482;-68
2023/04/01 03:13:04;;;;;;;2.60;2.40;;;;;;;;;;4993930;28;20459;-67
2023/04/01 03:15:31;;;;;;;4.63;2.90;;;;;;;;;;4993810;28;20452;-67
2023/04/01 03:17:59;;;;;;;3.47;2.37;;;;;;;;;;4993883;28;20446;-67
2023/04/01 03:20:27;;;;;;;2.97;2.77;;;;;;;;;;4994090;28;20456;-67
2023/04/01 03:22:55;;;;;;;2.47;2.27;;;;;;;;;;4994171;28;20875;-67
2023/04/01 03:25:22;;;;;;;2.70;2.50;;;;;;;;;;4994061;28;20798;-67
2023/04/01 03:27:49;;;;;;;2.90;2.70;;;;;;;;;;4994088;28;20449;-66
2023/04/01 03:30:16;;;;;;;3.27;2.97;;;;;;;;;;4993897;28;20493;-68
2023/04/01 03:32:43;;;;;;;3.13;2.93;;;;;;;;;;4994091;28;20451;-67
2023/04/01 03:35:10;;;;;;;3.00;2.80;;;;;;;;;;4993799;28;20553;-67
2023/04/01 03:37:39;;;;;;;5.13;3.63;;;;;;;;;;4994033;28;20441;-67
2023/04/01 03:40:07;;;;;;;6.20;2.90;;;;;;;;;;4993849;28;20444;-67
2023/04/01 03:42:34;;;;;;;3.33;3.03;;;;;;;;;;4995509;28;20452;-70
2023/04/01 03:45:02;;;;;;;6.30;2.93;;;;;;;;;;4996673;28;20792;-67
2023/04/01 03:47:29;;;;;;;3.30;2.83;;;;;;;;;;4996308;28;20540;-67
2023/04/01 03:49:56;;;;;;;3.33;3.03;;;;;;;;;;5015581;28;20864;-68
2023/04/01 03:52:23;;;;;;;3.60;3.37;;;;;;;;;;5016534;28;20473;-68
2023/04/01 03:54:52;;;;;;;3.73;3.43;;;;;;;;;;5015971;28;20547;-68
2023/04/01 03:57:19;;;;;;;4.33;3.87;;;;;;;;;;5016809;28;20441;-67
2023/04/01 03:59:46;;;;;;;4.00;3.70;;;;;;;;;;5016190;28;20530;-67
2023/04/01 04:02:13;;;;;;;4.20;3.80;;;;;;;;;;5016252;28;20944;-68
2023/04/01 04:04:41;;;;;;;4.20;3.90;;;;;;;;;;5016510;28;20458;-67
2023/04/01 04:07:08;;;;;;;4.70;4.30;;;;;;;;;;5016595;28;20782;-67
2023/04/01 04:09:35;;;;;;;4.80;4.10;;;;;;;;;;5016148;28;20478;-68
2023/04/01 04:12:05;;;;;;;8.10;3.93;;;;;;;;;;5016270;28;20452;-67
2023/04/01 04:14:32;;;;;;;4.97;4.23;;;;;;;;;;5000385;28;20463;-67
2023/04/01 04:16:59;;;;;;;4.30;3.93;;;;;;;;;;4996666;28;20441;-68
2023/04/01 04:19:26;;;;;;;5.03;4.53;;;;;;;;;;4996661;28;20467;-68
2023/04/01 04:21:54;;;;;;;6.63;5.60;;;;;;;;;;4996542;28;20964;-67
2023/04/01 04:24:21;;;;;;;4.33;3.90;;;;;;;;;;4996767;28;21021;-68
2023/04/01 04:26:48;;;;;;;4.87;4.47;;;;;;;;;;4996580;28;20459;-68
2023/04/01 04:29:17;;;;;;;6.23;4.30;;;;;;;;;;4995924;28;20952;-68
2023/04/01 04:31:44;;;;;;;6.00;3.80;;;;;;;;;;4996268;28;20445;-68
2023/04/01 04:34:11;;;;;;;6.67;4.63;;;;;;;;;;4996055;28;20496;-68
2023/04/01 04:36:38;;;;;;;4.67;4.27;;;;;;;;;;4996050;28;20442;-68
2023/04/01 04:39:05;;;;;;;6.07;4.30;;;;;;;;;;4996310;28;20452;-68
2023/04/01 04:41:33;;;;;;;6.07;4.40;;;;;;;;;;4996098;28;20446;-67
2023/04/01 04:44:00;;;;;;;5.70;5.10;;;;;;;;;;4995999;28;20461;-68
2023/04/01 04:46:28;;;;;;;5.30;4.10;;;;;;;;;;4996231;28;20450;-68
2023/04/01 04:48:55;;;;;;;4.53;4.13;;;;;;;;;;4996131;28;20452;-68
2023/04/01 04:51:23;;;;;;;5.50;5.00;;;;;;;;;;4995937;28;20989;-67
2023/04/01 04:53:50;;;;;;;4.63;4.00;;;;;;;;;;4995244;28;20455;-68
2023/04/01 04:56:19;;;;;;;4.60;4.00;;;;;;;;;;4996065;28;20445;-68
2023/04/01 04:58:47;;;;;;;6.43;4.13;;;;;;;;;;4996417;28;20459;-68
2023/04/01 05:01:15;;;;;;;4.03;3.73;;;;;;;;;;4995744;28;20829;-68
2023/04/01 05:03:43;;;;;;;3.67;3.37;;;;;;;;;;4996066;28;20472;-69
2023/04/01 05:06:11;;;;;;;4.67;3.57;;;;;;;;;;4995818;28;20455;-68
2023/04/01 05:08:40;;;;;;;6.00;3.53;;;;;;;;;;4995982;28;20449;-69
2023/04/01 05:11:09;;;;;;;4.33;3.60;;;;;;;;;;4995462;28;21001;-68
2023/04/01 05:13:36;;;;;;;5.47;3.40;;;;;;;;;;4995790;28;20902;-68
2023/04/01 05:16:04;;;;;;;3.70;3.40;;;;;;;;;;4995479;28;20456;-69
2023/04/01 05:18:31;;;;;;;4.50;4.10;;;;;;;;;;4996036;28;20444;-68
2023/04/01 05:21:00;;;;;;;3.43;3.23;;;;;;;;;;4995800;28;20923;-68
2023/04/01 05:23:27;;;;;;;8.20;3.80;;;;;;;;;;4995842;28;20525;-68
2023/04/01 05:25:54;;;;;;;3.83;3.40;;;;;;;;;;4995897;28;20449;-68
2023/04/01 05:28:21;;;;;;;4.83;3.50;;;;;;;;;;4995989;28;20450;-69
2023/04/01 05:30:48;;;;;;;5.20;4.40;;;;;;;;;;4995385;28;20821;-69
2023/04/01 05:33:16;;;;;;;4.63;4.23;;;;;;;;;;4995422;28;20445;-68
2023/04/01 05:35:43;;;;;;;4.47;4.07;;;;;;;;;;4994583;28;20982;-70
2023/04/01 05:38:12;;;;;;;4.60;4.20;;;;;;;;;;4995519;28;20449;-68
2023/04/01 05:40:39;;;;;;;5.20;4.70;;;;;;;;;;4995166;28;20459;-69
2023/04/01 05:43:06;;;;;;;5.17;4.47;;;;;;;;;;4995206;28;20538;-68
2023/04/01 05:45:33;;;;;;;5.37;4.87;;;;;;;;;;4995878;28;20445;-68
2023/04/01 05:48:01;;;;;;;6.07;5.43;;;;;;;;;;4995557;28;20444;-68
2023/04/01 05:50:28;;;;;;;4.90;4.50;;;;;;;;;;4995349;28;20826;-69
2023/04/01 05:52:56;;;;;;;5.50;5.00;;;;;;;;;;4994762;28;20961;-68
2023/04/01 05:55:25;;;;;;;6.00;5.40;;;;;;;;;;4995050;28;20437;-69
2023/04/01 05:57:52;;;;;;;6.63;5.63;;;;;;;;;;4994979;28;20445;-68
2023/04/01 06:00:20;;;;;;;5.80;5.30;;;;;;;;;;4994803;28;20455;-68
2023/04/01 06:02:47;;;;;;;6.73;6.23;;;;;;;;;;4994791;28;20448;-68
2023/04/01 06:05:16;;;;;;;8.67;7.67;;;;;;;;;;4995000;28;20933;-68
2023/04/01 06:07:43;;;;;;;7.53;6.60;;;;;;;;;;4994944;28;20446;-68
2023/04/01 06:10:13;;;;;;;7.43;6.63;;;;;;;;;;4994815;28;20491;-67
2023/04/01 06:12:45;;;;;;;7.20;6.60;;;;;;;;;;4994453;28;21098;-68
2023/04/01 06:15:18;;;;;;;8.90;7.80;;;;;;;;;;4994335;28;20927;-67
2023/04/01 06:17:53;;;;;;;11.67;9.17;;;;;;;;;;4994223;28;20433;-74
2023/04/01 06:20:25;;;;;;;7.80;6.87;;;;;;;;;;4994408;28;20441;-77
2023/04/01 06:23:07;;;;;;;8.80;8.00;;;;;;;;;;4994503;28;20441;-67
2023/04/01 06:25:52;;;;;;;12.10;8.07;;;;;;;;;;4992602;28;20465;-67
2023/04/01 06:28:40;;;;;;;9.17;8.27;;;;;;;;;;4994556;28;20521;-67
2023/04/01 06:31:12;;;;;;;10.10;9.10;;;;;;;;;;4993927;28;20469;-68
2023/04/01 06:33:50;;;;;;;10.40;8.80;;;;;;;;;;4993999;28;20436;-67
2023/04/01 06:36:27;;;;;;;9.27;8.13;;;;;;;;;;4994186;28;20505;-67
2023/04/01 06:39:05;;;;;;;13.80;9.20;;;;;;;;;;4994722;28;20524;-67
2023/04/01 06:41:50;;;;;;;9.30;8.30;;;;;;;;;;4994062;28;20445;-68
2023/04/01 06:44:25;;;;;;;10.20;9.10;;;;;;;;;;4984670;28;20551;-68
2023/04/01 06:46:58;;;;;;;8.97;8.17;;;;;;;;;;4994533;28;20499;-68
2023/04/01 06:49:33;;;;;;;10.30;8.87;;;;;;;;;;4994844;28;20434;-67
2023/04/01 06:52:02;;;;;;;9.73;8.43;;;;;;;;;;4994255;28;20472;-67
2023/04/01 06:54:31;;;;;;;11.00;8.60;;;;;;;;;;4993530;28;20461;-68
2023/04/01 06:57:02;;;;;;;9.77;8.77;;;;;;;;;;4993168;28;20472;-68
2023/04/01 06:59:33;;;;;;;10.03;9.03;;;;;;;;;;4993929;28;20525;-68
2023/04/01 07:02:02;;;;;;;7.93;7.13;;;;;;;;;;4993960;28;20440;-68
2023/04/01 07:04:31;;;;;;;7.93;7.23;;;;;;;;;;4993740;28;20450;-68
2023/04/01 07:07:00;;;;;;;8.10;7.33;;;;;;;;;;4994154;28;20447;-68
2023/04/01 07:09:29;;;;;;;10.03;7.90;;;;;;;;;;4994071;28;21022;-68
2023/04/01 07:11:58;;;;;;;8.17;7.43;;;;;;;;;;4993814;28;20477;-68
2023/04/01 07:14:27;;;;;;;8.73;7.90;;;;;;;;;;4993650;28;20464;-68
2023/04/01 07:17:00;;;;;;;8.70;7.43;;;;;;;;;;4992630;28;20457;-68
2023/04/01 07:19:30;;;;;;;8.50;7.77;;;;;;;;;;4993589;28;20434;-69
2023/04/01 07:22:01;;;;;;;7.77;7.00;;;;;;;;;;4993406;28;20488;-69
2023/04/01 07:24:30;;;;;;;7.67;7.03;;;;;;;;;;4993772;28;20437;-68
2023/04/01 07:26:58;;;;;;;7.80;6.97;;;;;;;;;;4993836;28;20458;-68
2023/04/01 07:29:26;;;;;;;6.77;6.27;;;;;;;;;;4993666;28;20432;-68
2023/04/01 07:32:08;;;;;;;7.30;6.07;;;;;;;;;;4993441;28;20489;-68
2023/04/01 07:34:40;;;;;;;6.53;5.93;;;;;;;;;;4992251;28;20544;-68
2023/04/01 07:37:12;;;;;;;7.93;7.23;;;;;;;;;;4993442;28;20496;-69
2023/04/01 07:39:44;;;;;;;6.07;5.57;;;;;;;;;;4993031;28;20469;-68
2023/04/01 07:42:17;;;;;;;6.40;5.90;;;;;;;;;;4993646;28;20430;-68
2023/04/01 07:44:51;;;;;;;6.20;5.57;;;;;;;;;;4993850;28;20442;-68
2023/04/01 07:47:27;;;;;;;7.10;6.40;;;;;;;;;;4994003;28;20460;-68
2023/04/01 07:50:03;;;;;;;5.70;5.20;;;;;;;;;;4993619;28;20522;-68
2023/04/01 07:52:37;;;;;;;8.10;6.13;;;;;;;;;;4993175;28;21026;-69
2023/04/01 07:55:08;;;;;;;7.27;6.57;;;;;;;;;;4993407;28;20445;-68
2023/04/01 07:57:40;;;;;;;6.70;6.10;;;;;;;;;;4993155;28;20442;-69
2023/04/01 08:00:11;;;;;;;6.90;5.80;;;;;;;;;;4992897;28;21013;-69
2023/04/01 08:02:44;;;;;;;5.67;5.17;;;;;;;;;;4993488;28;20449;-69
2023/04/01 08:05:19;;;;;;;6.33;5.83;;;;;;;;;;4993586;28;20455;-68
2023/04/01 08:07:48;;;;;;;6.90;6.30;;;;;;;;;;4993532;28;20780;-69
2023/04/01 08:10:18;;;;;;;7.23;5.30;;;;;;;;;;4993096;28;20445;-68
2023/04/01 08:12:49;;;;;;;7.00;6.33;;;;;;;;;;4993231;28;20483;-69
2023/04/01 08:15:22;;;;;;;5.70;5.20;;;;;;;;;;4993906;28;20546;-69
2023/04/01 08:17:53;;;;;;;7.00;6.30;;;;;;;;;;4992468;28;20926;-69
2023/04/01 08:20:27;;;;;;;8.73;6.00;;;;;;;;;;4992789;28;20434;-68
2023/04/01 08:22:58;;;;;;;5.83;5.40;;;;;;;;;;4993171;28;20519;-69
2023/04/01 08:25:26;;;;;;;6.27;5.77;;;;;;;;;;4993158;28;20449;-68
2023/04/01 08:27:56;;;;;;;8.93;7.87;;;;;;;;;;4993517;28;20487;-69
2023/04/01 08:30:25;;;;;;;8.00;6.70;;;;;;;;;;4996913;28;20440;-69
2023/04/01 08:32:56;;;;;;;6.20;5.70;;;;;;;;;;4996886;28;20485;-68
2023/04/01 08:35:28;;;;;;;6.50;6.00;;;;;;;;;;4996923;28;20509;-69
2023/04/01 08:37:56;;;;;;;7.00;6.30;;;;;;;;;;4996149;28;20463;-69
2023/04/01 08:40:42;;;;;;;6.77;6.20;;;;;;;;;;4996388;28;20460;-68
2023/04/01 08:43:14;;;;;;;7.70;6.50;;;;;;;;;;4996646;28;20438;-69
2023/04/01 08:45:52;;;;;;;7.10;5.53;;;;;;;;;;4996732;28;20422;-68
2023/04/01 08:48:29;;;;;;;5.67;5.07;;;;;;;;;;4996629;28;20794;-68
2023/04/01 08:51:11;;;;;;;6.50;5.90;;;;;;;;;;4996778;28;20517;-68
2023/04/01 08:53:47;;;;;;;6.50;5.67;;;;;;;;;;4996156;28;20435;-68
2023/04/01 08:56:16;;;;;;;6.33;5.73;;;;;;;;;;4996129;28;20442;-68
2023/04/01 08:59:03;;;;;;;6.07;5.57;;;;;;;;;;4995207;28;20939;-69
2023/04/01 09:01:40;;;;;;;5.80;5.30;;;;;;;;;;4996092;28;20593;-68
2023/04/01 09:04:16;;;;;;;5.90;5.40;;;;;;;;;;4995600;28;20495;-68
2023/04/01 09:06:51;;;;;;;5.97;5.47;;;;;;;;;;4995989;28;20434;-68
2023/04/01 09:09:39;;;;;;;6.07;5.57;;;;;;;;;;4995773;28;20433;-68
2023/04/01 09:12:21;;;;;;;5.63;5.23;;;;;;;;;;4971455;28;20487;-68
2023/04/01 09:15:12;;;;;;;7.07;6.10;;;;;;;;;;4995904;28;20530;-69
2023/04/01 09:18:06;;;;;;;5.80;5.30;;;;;;;;;;4979889;28;20452;-69
2023/04/01 09:20:51;;;;;;;5.90;5.50;;;;;;;;;;4960734;28;20451;-69
2023/04/01 09:23:35;;;;;;;6.93;6.07;;;;;;;;;;4995320;28;20452;-68
2023/04/01 09:26:22;;;;;;;17.50;14.73;;;;;;;;;;4995808;28;20430;-69
2023/04/01 09:28:55;;;;;;;9.33;8.40;;;;;;;;;;4995818;28;20437;-69
2023/04/01 09:31:37;;;;;;;7.17;6.57;;;;;;;;;;4996062;28;20468;-69
2023/04/01 09:34:21;;;;;;;6.23;5.73;;;;;;;;;;4993448;28;20449;-68
2023/04/01 09:36:54;;;;;;;7.37;6.67;;;;;;;;;;4995402;28;20428;-69
2023/04/01 09:39:36;;;;;;;6.57;6.07;;;;;;;;;;4994398;28;20434;-68
2023/04/01 09:42:09;;;;;;;7.50;6.90;;;;;;;;;;4994944;28;20438;-68
2023/04/01 09:44:43;;;;;;;7.83;7.13;;;;;;;;;;4995012;28;20427;-69
2023/04/01 09:47:18;;;;;;;7.67;6.97;;;;;;;;;;5004407;28;20450;-68
2023/04/01 09:49:58;;;;;;;7.50;6.77;;;;;;;;;;5015120;28;20437;-70
2023/04/01 09:52:32;;;;;;;6.90;6.30;;;;;;;;;;5014536;28;21005;-68
2023/04/01 09:55:08;;;;;;;5.87;5.47;;;;;;;;;;5014406;28;20441;-68
2023/04/01 09:57:43;;;;;;;5.70;5.30;;;;;;;;;;5014979;28;20430;-70
2023/04/01 10:00:31;;;;;;;6.40;5.80;;;;;;;;;;5014771;28;20443;-69
2023/04/01 10:03:16;;;;;;;8.80;5.90;;;;;;;;;;5014888;28;20454;-68
2023/04/01 10:05:57;;;;;;;15.97;14.37;;;;;;;;;;5014959;28;20459;-68
2023/04/01 10:08:51;;;;;;;17.97;16.10;;;;;;;;;;5015334;28;20516;-68
2023/04/01 10:11:49;;;;;;;6.57;6.07;;;;;;;;;;5014489;28;20486;-68
2023/04/01 10:14:24;;;;;;;6.70;6.20;;;;;;;;;;5015008;28;20777;-68
2023/04/01 10:17:10;;;;;;;5.53;5.13;;;;;;;;;;5014640;28;20437;-68
2023/04/01 10:19:57;;;;;;;5.50;5.00;;;;;;;;;;5014279;28;20783;-68
2023/04/01 10:22:29;;;;;;;4.50;4.20;;;;;;;;;;5014848;28;20442;-68
2023/04/01 10:25:12;;;;;;;5.27;4.90;;;;;;;;;;5014261;28;20481;-68
2023/04/01 10:27:51;;;;;;;6.93;5.40;;;;;;;;;;5014051;28;20438;-68
2023/04/01 10:30:32;;;;;;;6.07;5.67;;;;;;;;;;5014144;28;20433;-69
2023/04/01 10:33:17;;;;;;;6.63;6.10;;;;;;;;;;5013739;28;20473;-69
2023/04/01 10:36:07;;;;;;;6.70;6.00;;;;;;;;;;5013672;28;20468;-69
2023/04/01 10:38:46;;;;;;;6.90;6.20;;;;;;;;;;5009032;28;20921;-69
2023/04/01 10:41:40;;;;;;;5.40;5.00;;;;;;;;;;4993902;28;20429;-69
2023/04/01 10:44:29;;;;;;;5.27;4.80;;;;;;;;;;4994155;28;20433;-69
2023/04/01 10:47:14;;;;;;;6.60;5.17;;;;;;;;;;4989433;28;20450;-69
2023/04/01 10:50:15;;;;;;;7.40;6.70;;;;;;;;;;4994493;28;20431;-69
2023/04/01 10:53:03;;;;;;;5.77;5.27;;;;;;;;;;4933495;29;20493;-69
2023/04/01 10:55:38;;;;;;;6.10;5.50;;;;;;;;;;4934192;29;20517;-69
2023/04/01 10:58:26;;;;;;;5.80;5.40;;;;;;;;;;4973177;28;20808;-69
2023/04/01 11:01:09;;;;;;;5.80;5.10;;;;;;;;;;4988598;28;20548;-69
2023/04/01 11:03:48;;;;;;;4.77;4.43;;;;;;;;;;4993524;28;20546;-69
2023/04/01 11:06:39;;;;;;;5.10;4.77;;;;;;;;;;4994102;28;20529;-69
2023/04/01 11:09:36;;;;;;;6.17;5.40;;;;;;;;;;4994268;28;20443;-69
2023/04/01 11:12:21;;;;;;;4.80;4.40;;;;;;;;;;4933950;29;20493;-69
2023/04/01 11:15:01;;;;;;;5.40;5.00;;;;;;;;;;4987634;28;20530;-69
2023/04/01 11:17:45;;;;;;;6.00;5.50;;;;;;;;;;4993960;28;20447;-70
2023/04/01 11:20:30;;;;;;;5.70;5.30;;;;;;;;;;4993338;28;20440;-71
2023/04/01 11:23:07;;;;;;;5.17;4.67;;;;;;;;;;4993188;28;20450;-71
2023/04/01 11:25:57;;;;;;;6.00;5.60;;;;;;;;;;4994255;28;20434;-69
2023/04/01 11:28:43;;;;;;;5.10;4.70;;;;;;;;;;4994043;28;20442;-69
2023/04/01 11:31:19;;;;;;;4.20;4.00;;;;;;;;;;4964003;28;20453;-69
2023/04/01 11:33:51;;;;;;;3.77;3.57;;;;;;;;;;4993399;28;20565;-69
2023/04/01 11:36:27;;;;;;;3.30;3.10;;;;;;;;;;4994121;28;20493;-69
2023/04/01 11:38:59;;;;;;;3.83;3.50;;;;;;;;;;4993169;28;20452;-70
2023/04/01 11:41:32;;;;;;;3.17;2.97;;;;;;;;;;4993200;28;20437;-70
2023/04/01 11:44:09;;;;;;;4.20;3.90;;;;;;;;;;4993297;28;20432;-70
2023/04/01 11:46:41;;;;;;;3.80;3.50;;;;;;;;;;4993319;28;20961;-68
2023/04/01 11:49:16;;;;;;;4.33;4.03;;;;;;;;;;4993987;28;20545;-69
2023/04/01 11:51:50;;;;;;;3.70;3.40;;;;;;;;;;4993040;28;20426;-69
2023/04/01 11:54:26;;;;;;;4.40;4.03;;;;;;;;;;4993827;28;20432;-68
2023/04/01 11:57:00;;;;;;;3.37;3.17;;;;;;;;;;4993667;28;20429;-68
2023/04/01 11:59:43;;;;;;;3.23;3.03;;;;;;;;;;4993251;28;20452;-70
2023/04/01 12:02:14;;;;;;;4.10;3.80;;;;;;;;;;4960290;28;20462;-69
2023/04/01 12:04:54;;;;;;;8.27;4.77;;;;;;;;;;4996931;28;20483;-69
2023/04/01 12:07:26;;;;;;;4.07;3.67;;;;;;;;;;4997254;28;20456;-69
2023/04/01 12:10:00;;;;;;;4.40;4.10;;;;;;;;;;4997223;28;20452;-69
2023/04/01 12:12:32;;;;;;;4.20;3.90;;;;;;;;;;4996756;28;20964;-69
2023/04/01 12:15:04;;;;;;;6.17;4.73;;;;;;;;;;4997382;28;20913;-68
2023/04/01 12:17:37;;;;;;;3.40;3.20;;;;;;;;;;4997028;28;20467;-70
2023/04/01 12:20:16;;;;;;;5.13;4.73;;;;;;;;;;4996982;28;20433;-70
2023/04/01 12:22:48;;;;;;;4.70;4.33;;;;;;;;;;4996416;28;20487;-69
2023/04/01 12:25:28;;;;;;;4.17;3.77;;;;;;;;;;4996479;28;21054;-69
2023/04/01 12:28:01;;;;;;;4.37;3.60;;;;;;;;;;4996985;28;20526;-69
2023/04/01 12:30:44;;;;;;;3.43;3.23;;;;;;;;;;4996868;28;20441;-68
2023/04/01 12:33:29;;;;;;;4.40;3.33;;;;;;;;;;4996953;28;20472;-69
2023/04/01 12:36:03;;;;;;;3.90;3.60;;;;;;;;;;4998342;28;20537;-69
2023/04/01 12:38:35;;;;;;;2.70;2.50;;;;;;;;;;4996860;28;20447;-70
2023/04/01 12:41:10;;;;;;;3.10;2.90;;;;;;;;;;4995914;28;20426;-70
2023/04/01 12:44:06;;;;;;;3.40;3.10;;;;;;;;;;4996062;28;20445;-69
2023/04/01 12:46:39;;;;;;;3.30;3.00;;;;;;;;;;4997668;28;20441;-69
2023/04/01 12:49:21;;;;;;;3.83;3.53;;;;;;;;;;4996747;28;20514;-70
2023/04/01 12:51:52;;;;;;;3.77;3.47;;;;;;;;;;4996883;28;20474;-69
2023/04/01 12:54:43;;;;;;;3.40;3.17;;;;;;;;;;5016713;28;20862;-68
2023/04/01 12:57:19;;;;;;;4.23;3.93;;;;;;;;;;5016053;28;20451;-68
2023/04/01 12:59:54;;;;;;;4.60;4.20;;;;;;;;;;5015590;28;20920;-68
2023/04/01 13:02:27;;;;;;;4.80;4.30;;;;;;;;;;5015356;28;20436;-70
2023/04/01 13:05:19;;;;;;;5.30;4.90;;;;;;;;;;5015932;28;20458;-68
2023/04/01 13:07:55;;;;;;;5.20;4.70;;;;;;;;;;5015873;28;20837;-68
2023/04/01 13:10:29;;;;;;;6.03;5.30;;;;;;;;;;5015473;28;20450;-68
2023/04/01 13:13:08;;;;;;;7.50;6.80;;;;;;;;;;5016110;28;20570;-68
2023/04/01 13:15:39;;;;;;;6.80;6.20;;;;;;;;;;5015217;28;20854;-68
2023/04/01 13:18:14;;;;;;;6.60;5.87;;;;;;;;;;5015365;28;20434;-68
2023/04/01 13:20:45;;;;;;;6.70;5.17;;;;;;;;;;5015178;28;20480;-69
2023/04/01 13:23:20;;;;;;;5.60;5.10;;;;;;;;;;5015020;28;20444;-68
2023/04/01 13:25:49;;;;;;;14.00;6.20;;;;;;;;;;5015423;28;20436;-68
2023/04/01 13:28:19;;;;;;;7.80;5.40;;;;;;;;;;5015173;28;20449;-68
2023/04/01 13:30:51;;;;;;;7.30;6.03;;;;;;;;;;5015426;28;20498;-68
2023/04/01 13:33:27;;;;;;;6.37;5.77;;;;;;;;;;5015681;28;20482;-68
2023/04/01 13:35:58;;;;;;;7.97;5.10;;;;;;;;;;5014957;28;20561;-68
2023/04/01 13:38:40;;;;;;;7.20;6.50;;;;;;;;;;5015650;28;20436;-68
2023/04/01 13:41:15;;;;;;;6.57;5.87;;;;;;;;;;5012688;28;20491;-68
2023/04/01 13:43:45;;;;;;;7.00;6.20;;;;;;;;;;5014943;28;20485;-68
2023/04/01 13:46:30;;;;;;;6.50;5.93;;;;;;;;;;5015244;28;20437;-68
2023/04/01 13:49:12;;;;;;;6.50;5.70;;;;;;;;;;5014869;28;20437;-68
2023/04/01 13:51:54;;;;;;;7.63;5.67;;;;;;;;;;5015545;28;20451;-68
2023/04/01 13:54:39;;;;;;;6.70;5.60;;;;;;;;;;5014937;28;20473;-68
2023/04/01 13:57:19;;;;;;;6.43;5.07;;;;;;;;;;5014701;28;20434;-68
2023/04/01 13:59:58;;;;;;;5.30;4.80;;;;;;;;;;5014677;28;20465;-68
2023/04/01 14:02:33;;;;;;;6.50;5.00;;;;;;;;;;5014107;28;20925;-69
2023/04/01 14:05:11;;;;;;;5.13;4.63;;;;;;;;;;5014122;28;20478;-68
2023/04/01 14:07:46;;;;;;;5.33;4.87;;;;;;;;;;5014927;28;20455;-68
2023/04/01 14:10:18;;;;;;;4.93;4.43;;;;;;;;;;5014594;28;20445;-69
2023/04/01 14:12:51;;;;;;;5.60;5.00;;;;;;;;;;5014900;28;20474;-69
2023/04/01 14:15:26;;;;;;;5.90;5.37;;;;;;;;;;5014695;28;20445;-68
2023/04/01 14:18:04;;;;;;;11.60;5.70;;;;;;;;;;5014782;28;20431;-68
2023/04/01 14:20:35;;;;;;;6.33;5.73;;;;;;;;;;5014132;28;20525;-69
2023/04/01 14:23:17;;;;;;;6.10;4.83;;;;;;;;;;5013753;28;20903;-69
2023/04/01 14:25:55;;;;;;;14.43;12.93;;;;;;;;;;5012280;28;20453;-70
2023/04/01 14:28:28;;;;;;;6.53;4.90;;;;;;;;;;5014368;28;20434;-70
2023/04/01 14:31:12;;;;;;;4.83;4.43;;;;;;;;;;5015031;28;20465;-70
2023/04/01 14:33:44;;;;;;;6.20;4.87;;;;;;;;;;5014060;28;20483;-70
2023/04/01 14:36:32;;;;;;;5.00;4.50;;;;;;;;;;5014466;28;20485;-70
2023/04/01 14:39:06;;;;;;;5.10;4.70;;;;;;;;;;5014212;28;20517;-69
2023/04/01 14:41:41;;;;;;;4.57;4.17;;;;;;;;;;5013370;28;20770;-70
2023/04/01 14:44:32;;;;;;;3.87;3.57;;;;;;;;;;5013579;28;20524;-70
2023/04/01 14:47:32;;;;;;;3.63;3.33;;;;;;;;;;4999903;28;20787;-69
2023/04/01 14:50:07;;;;;;;5.20;4.80;;;;;;;;;;4953387;29;20449;-70
2023/04/01 14:52:35;;;;;;;5.33;4.90;;;;;;;;;;4953532;29;20456;-69
2023/04/01 14:55:03;;;;;;;5.27;4.80;;;;;;;;;;4983667;28;20450;-69
2023/04/01 14:57:31;;;;;;;4.83;4.43;;;;;;;;;;5014207;28;20948;-69
2023/04/01 15:00:02;;;;;;;5.40;4.90;;;;;;;;;;5013941;28;20788;-70
2023/04/01 15:02:35;;;;;;;5.10;4.60;;;;;;;;;;5013485;28;20496;-69
2023/04/01 15:05:10;;;;;;;5.40;4.90;;;;;;;;;;5013406;28;20453;-70
2023/04/01 15:07:47;;;;;;;4.73;4.33;;;;;;;;;;5013780;28;20454;-70
2023/04/01 15:10:20;;;;;;;4.30;3.90;;;;;;;;;;5013382;28;21026;-70
2023/04/01 15:12:55;;;;;;;4.67;4.20;;;;;;;;;;5013966;28;20430;-71
2023/04/01 15:15:29;;;;;;;3.93;3.63;;;;;;;;;;5013754;28;20434;-70
2023/04/01 15:18:08;;;;;;;4.90;4.40;;;;;;;;;;5014019;28;20449;-69
2023/04/01 15:20:51;;;;;;;4.70;4.30;;;;;;;;;;5012794;28;20489;-69